createdAt,value
2018-06-16T00:02:23.641Z,15.30
2018-06-16T00:04:52.365Z,15.30
2018-06-16T00:07:21.050Z,15.20
2018-06-16T00:09:49.773Z,15.20
2018-06-16T00:12:18.447Z,15.30
2018-06-16T00:14:47.157Z,15.30
2018-06-16T00:17:15.778Z,15.30
2018-06-16T00:19:44.420Z,15.10
2018-06-16T00:22:13.026Z,15.10
2018-06-16T00:24:42.369Z,15.00
2018-06-16T00:27:11.568Z,15.00
2018-06-16T00:29:40.260Z,14.90
2018-06-16T00:32:08.919Z,14.90
2018-06-16T00:34:37.593Z,15.00
2018-06-16T00:37:06.269Z,15.00
2018-06-16T00:39:34.959Z,14.80
2018-06-16T00:42:03.586Z,14.80
2018-06-16T00:44:32.222Z,14.80
2018-06-16T00:47:00.816Z,14.80
2018-06-16T00:49:29.434Z,14.80
2018-06-16T00:51:58.061Z,14.80
2018-06-16T00:54:26.660Z,14.70
2018-06-16T00:57:06.285Z,14.60
2018-06-16T00:59:34.948Z,14.70
2018-06-16T01:02:03.544Z,14.60
2018-06-16T01:04:32.228Z,14.60
2018-06-16T01:07:00.931Z,14.70
2018-06-16T01:09:29.576Z,14.70
2018-06-16T01:11:58.177Z,14.70
2018-06-16T01:14:26.801Z,14.70
2018-06-16T01:16:55.409Z,14.60
2018-06-16T01:19:24.020Z,14.60
2018-06-16T01:21:52.636Z,14.50
2018-06-16T01:24:21.273Z,14.60
2018-06-16T01:26:49.861Z,14.60
2018-06-16T01:29:18.477Z,14.60
2018-06-16T01:31:47.068Z,14.50
2018-06-16T01:34:15.697Z,14.60
2018-06-16T01:36:44.298Z,14.50
2018-06-16T01:39:12.905Z,14.60
2018-06-16T01:41:41.497Z,14.60
2018-06-16T01:44:10.131Z,14.70
2018-06-16T01:46:38.725Z,14.50
2018-06-16T01:49:07.313Z,14.50
2018-06-16T01:51:35.924Z,14.60
2018-06-16T01:54:04.559Z,14.60
2018-06-16T01:56:33.622Z,14.60
2018-06-16T01:59:02.260Z,14.60
2018-06-16T02:01:30.912Z,14.60
2018-06-16T02:03:59.515Z,14.60
2018-06-16T02:06:28.100Z,14.60
2018-06-16T02:08:56.750Z,14.70
2018-06-16T02:11:25.344Z,14.60
2018-06-16T02:13:53.953Z,14.60
2018-06-16T02:16:22.525Z,14.50
2018-06-16T02:18:51.139Z,14.50
2018-06-16T02:21:19.796Z,14.60
2018-06-16T02:23:48.407Z,14.60
2018-06-16T02:26:17.076Z,14.60
2018-06-16T02:28:45.722Z,14.60
2018-06-16T02:31:14.364Z,14.50
2018-06-16T02:33:43.040Z,14.60
2018-06-16T02:36:11.685Z,14.60
2018-06-16T02:38:40.295Z,14.60
2018-06-16T02:41:08.907Z,14.60
2018-06-16T02:43:37.537Z,14.60
2018-06-16T02:46:06.252Z,14.50
2018-06-16T02:48:34.845Z,14.60
2018-06-16T02:51:03.487Z,14.60
2018-06-16T02:53:32.082Z,14.70
2018-06-16T02:56:00.723Z,14.60
2018-06-16T02:58:29.350Z,14.60
2018-06-16T03:00:57.986Z,14.50
2018-06-16T03:03:26.588Z,14.50
2018-06-16T03:05:55.220Z,14.60
2018-06-16T03:08:23.835Z,14.50
2018-06-16T03:10:52.561Z,14.50
2018-06-16T03:13:21.113Z,14.50
2018-06-16T03:15:50.488Z,14.40
2018-06-16T03:18:19.065Z,14.40
2018-06-16T03:20:47.682Z,14.40
2018-06-16T03:23:16.312Z,14.40
2018-06-16T03:25:44.896Z,14.40
2018-06-16T03:28:13.505Z,14.50
2018-06-16T03:30:42.104Z,14.50
2018-06-16T03:33:10.695Z,14.50
2018-06-16T03:35:39.368Z,14.50
2018-06-16T03:38:07.989Z,14.50
2018-06-16T03:40:36.606Z,14.50
2018-06-16T03:43:05.378Z,14.60
2018-06-16T03:45:33.993Z,14.70
2018-06-16T03:48:02.616Z,14.70
2018-06-16T03:50:31.220Z,14.70
2018-06-16T03:52:59.792Z,14.70
2018-06-16T03:55:28.400Z,14.70
2018-06-16T03:57:56.983Z,14.70
2018-06-16T04:00:25.608Z,14.80
2018-06-16T04:02:54.274Z,14.80
2018-06-16T04:05:22.886Z,14.90
2018-06-16T04:07:51.484Z,14.90
2018-06-16T04:10:20.148Z,14.90
2018-06-16T04:12:48.833Z,15.10
2018-06-16T04:15:17.519Z,15.10
2018-06-16T04:17:46.130Z,15.20
2018-06-16T04:20:14.809Z,15.30
2018-06-16T04:22:43.497Z,15.30
2018-06-16T04:25:12.198Z,15.60
2018-06-16T04:27:40.811Z,15.60
2018-06-16T04:30:09.482Z,15.70
2018-06-16T04:32:38.097Z,15.60
2018-06-16T04:35:06.734Z,15.90
2018-06-16T04:37:35.370Z,16.20
2018-06-16T04:40:04.142Z,16.50
2018-06-16T04:42:32.765Z,16.40
2018-06-16T04:45:01.460Z,16.30
2018-06-16T04:47:30.089Z,16.40
2018-06-16T04:49:58.712Z,16.50
2018-06-16T04:52:27.488Z,16.80
2018-06-16T04:54:56.217Z,16.70
2018-06-16T04:57:24.861Z,16.70
2018-06-16T04:59:53.488Z,16.60
2018-06-16T05:02:22.130Z,16.30
2018-06-16T05:04:50.782Z,16.20
2018-06-16T05:07:19.480Z,16.20
2018-06-16T05:09:48.084Z,16.50
2018-06-16T05:12:16.718Z,16.60
2018-06-16T05:14:45.322Z,16.50
2018-06-16T05:17:14.023Z,16.80
2018-06-16T05:19:42.656Z,17.00
2018-06-16T05:22:11.352Z,17.10
2018-06-16T05:24:39.941Z,17.10
2018-06-16T05:27:08.578Z,17.20
2018-06-16T05:29:37.193Z,17.40
2018-06-16T05:32:05.784Z,17.30
2018-06-16T05:34:34.413Z,17.10
2018-06-16T05:37:03.004Z,17.40
2018-06-16T05:39:31.594Z,17.80
2018-06-16T05:42:00.189Z,17.70
2018-06-16T05:44:28.775Z,17.80
2018-06-16T05:46:57.368Z,17.80
2018-06-16T05:49:25.958Z,17.60
2018-06-16T05:51:54.644Z,17.60
2018-06-16T05:54:23.245Z,17.60
2018-06-16T05:56:51.908Z,17.70
2018-06-16T05:59:20.464Z,17.90
2018-06-16T06:01:49.148Z,18.00
2018-06-16T06:04:17.768Z,18.20
2018-06-16T06:06:46.364Z,18.10
2018-06-16T06:09:14.973Z,18.90
2018-06-16T06:11:43.573Z,19.50
2018-06-16T06:14:12.212Z,19.10
2018-06-16T06:16:40.913Z,18.90
2018-06-16T06:19:09.584Z,18.80
2018-06-16T06:21:38.238Z,18.90
2018-06-16T06:24:06.920Z,19.50
2018-06-16T06:26:35.549Z,19.90
2018-06-16T06:29:04.145Z,19.50
2018-06-16T06:31:32.790Z,20.10
2018-06-16T06:54:06.181Z,20.10
2018-06-16T06:56:34.834Z,20.40
2018-06-16T06:59:03.441Z,20.40
2018-06-16T07:01:32.056Z,21.20
2018-06-16T07:04:00.681Z,20.50
2018-06-16T07:06:29.366Z,20.60
2018-06-16T07:08:57.957Z,21.00
2018-06-16T07:11:26.553Z,21.00
2018-06-16T07:13:55.140Z,20.90
2018-06-16T07:16:23.753Z,20.70
2018-06-16T07:18:52.385Z,21.30
2018-06-16T07:21:21.028Z,21.70
2018-06-16T07:23:49.741Z,20.70
2018-06-16T07:26:18.372Z,20.90
2018-06-16T07:28:47.077Z,21.40
2018-06-16T07:31:15.694Z,21.30
2018-06-16T07:33:44.317Z,21.40
2018-06-16T07:36:13.053Z,21.70
2018-06-16T07:38:41.625Z,21.90
2018-06-16T07:41:10.218Z,22.60
2018-06-16T07:43:38.887Z,22.30
2018-06-16T07:46:07.498Z,22.10
2018-06-16T07:48:36.156Z,22.50
2018-06-16T07:51:04.761Z,22.40
2018-06-16T07:53:33.410Z,22.20
2018-06-16T07:56:02.144Z,22.00
2018-06-16T07:58:30.886Z,22.20
2018-06-16T08:00:59.507Z,22.00
2018-06-16T08:03:28.121Z,22.10
2018-06-16T08:05:56.689Z,22.70
2018-06-16T08:08:25.342Z,21.70
2018-06-16T08:10:53.924Z,21.40
2018-06-16T08:13:22.517Z,21.60
2018-06-16T08:15:51.191Z,21.50
2018-06-16T08:18:19.862Z,21.70
2018-06-16T08:20:48.476Z,22.00
2018-06-16T08:23:17.155Z,22.20
2018-06-16T08:25:45.751Z,22.40
2018-06-16T08:28:14.328Z,22.60
2018-06-16T08:30:42.892Z,22.80
2018-06-16T08:33:11.511Z,23.20
2018-06-16T08:35:40.231Z,23.50
2018-06-16T08:38:08.861Z,23.70
2018-06-16T08:40:37.546Z,23.90
2018-06-16T08:43:06.289Z,23.80
2018-06-16T08:45:34.926Z,23.70
2018-06-16T08:48:03.608Z,23.90
2018-06-16T08:50:32.453Z,24.00
2018-06-16T08:53:01.387Z,23.50
2018-06-16T08:55:30.076Z,23.30
2018-06-16T08:57:58.712Z,23.30
2018-06-16T09:00:27.482Z,22.90
2018-06-16T09:02:56.089Z,22.40
2018-06-16T09:05:24.766Z,22.10
2018-06-16T09:07:53.420Z,22.40
2018-06-16T09:10:22.037Z,22.50
2018-06-16T09:12:50.685Z,22.50
2018-06-16T09:15:19.263Z,22.70
2018-06-16T09:17:47.878Z,22.60
2018-06-16T09:20:16.473Z,22.80
2018-06-16T09:22:45.100Z,23.30
2018-06-16T09:25:13.949Z,23.20
2018-06-16T09:27:42.533Z,23.50
2018-06-16T09:30:11.155Z,23.60
2018-06-16T09:32:39.776Z,24.10
2018-06-16T09:35:08.398Z,24.50
2018-06-16T09:40:05.302Z,23.70
2018-06-16T09:42:34.235Z,24.40
2018-06-16T09:45:02.700Z,24.50
2018-06-16T09:47:31.320Z,24.60
2018-06-16T09:49:59.942Z,25.10
2018-06-16T09:52:28.584Z,25.10
2018-06-16T09:54:57.198Z,24.50
2018-06-16T09:57:25.838Z,24.50
2018-06-16T09:59:54.500Z,24.40
2018-06-16T10:02:23.103Z,24.80
2018-06-16T10:04:51.773Z,25.20
2018-06-16T10:07:20.410Z,25.00
2018-06-16T10:09:49.046Z,24.70
2018-06-16T10:12:17.688Z,25.10
2018-06-16T10:14:46.334Z,25.50
2018-06-16T10:17:14.942Z,24.60
2018-06-16T10:22:11.925Z,24.10
2018-06-16T10:24:40.694Z,24.70
2018-06-16T10:27:09.276Z,25.00
2018-06-16T10:29:37.852Z,25.30
2018-06-16T10:32:06.455Z,25.90
2018-06-16T10:34:35.041Z,25.90
2018-06-16T10:37:03.598Z,26.20
2018-06-16T10:39:32.172Z,26.20
2018-06-16T10:42:00.722Z,25.90
2018-06-16T10:44:29.284Z,25.70
2018-06-16T10:46:57.805Z,26.30
2018-06-16T10:49:26.426Z,26.30
2018-06-16T10:54:23.349Z,26.50
2018-06-16T10:56:51.908Z,26.70
2018-06-16T10:59:20.506Z,26.40
2018-06-16T11:01:49.074Z,26.30
2018-06-16T11:04:17.644Z,26.80
2018-06-16T11:06:46.368Z,27.00
2018-06-16T11:09:14.971Z,27.20
2018-06-16T11:11:43.609Z,26.90
2018-06-16T11:14:12.273Z,27.10
2018-06-16T11:16:40.841Z,27.30
2018-06-16T11:19:09.537Z,27.50
2018-06-16T11:21:38.089Z,26.90
2018-06-16T11:24:06.779Z,26.10
2018-06-16T11:26:35.361Z,26.20
2018-06-16T11:29:04.043Z,26.70
2018-06-16T11:31:32.609Z,26.00
2018-06-16T11:34:01.201Z,26.40
2018-06-16T11:36:29.804Z,26.50
2018-06-16T11:38:58.548Z,26.90
2018-06-16T11:41:27.249Z,27.20
2018-06-16T11:43:55.827Z,26.60
2018-06-16T11:46:24.416Z,26.10
2018-06-16T11:48:53.049Z,25.80
2018-06-16T11:51:21.692Z,25.90
2018-06-16T11:53:50.260Z,25.80
2018-06-16T11:56:18.849Z,25.80
2018-06-16T11:58:47.766Z,26.60
2018-06-16T12:01:16.413Z,26.50
2018-06-16T12:03:44.985Z,26.60
2018-06-16T12:06:13.578Z,26.40
2018-06-16T12:08:42.163Z,26.50
2018-06-16T12:11:10.786Z,26.70
2018-06-16T12:13:39.353Z,26.70
2018-06-16T12:16:07.969Z,26.00
2018-06-16T12:18:36.518Z,26.30
2018-06-16T12:21:05.121Z,26.20
2018-06-16T12:23:33.682Z,25.90
2018-06-16T12:26:02.542Z,26.10
2018-06-16T12:28:31.080Z,25.80
2018-06-16T12:30:59.771Z,25.90
2018-06-16T12:33:28.389Z,25.90
2018-06-16T12:35:57.056Z,26.00
2018-06-16T12:38:25.656Z,26.20
2018-06-16T12:40:54.277Z,26.20
2018-06-16T12:43:22.875Z,26.10
2018-06-16T12:45:51.459Z,26.50
2018-06-16T12:48:20.034Z,26.10
2018-06-16T12:50:48.658Z,26.30
2018-06-16T12:53:17.209Z,26.10
2018-06-16T12:55:45.780Z,26.10
2018-06-16T12:58:14.350Z,26.50
2018-06-16T13:00:42.960Z,26.40
2018-06-16T13:03:11.553Z,26.50
2018-06-16T13:05:40.087Z,26.30
2018-06-16T13:08:08.677Z,26.30
2018-06-16T13:10:37.253Z,26.20
2018-06-16T13:13:05.834Z,26.30
2018-06-16T13:15:34.391Z,26.10
2018-06-16T13:18:02.957Z,25.70
2018-06-16T13:20:31.509Z,25.70
2018-06-16T13:23:00.077Z,25.70
2018-06-16T13:25:28.764Z,25.40
2018-06-16T13:27:57.329Z,25.20
2018-06-16T13:30:25.876Z,25.00
2018-06-16T13:32:54.453Z,25.10
2018-06-16T13:35:23.037Z,25.50
2018-06-16T13:37:51.696Z,26.00
2018-06-16T13:40:20.309Z,26.50
2018-06-16T13:42:48.957Z,26.70
2018-06-16T13:45:17.476Z,26.70
2018-06-16T13:47:49.016Z,26.60
2018-06-16T13:50:17.555Z,26.50
2018-06-16T13:52:46.141Z,26.50
2018-06-16T13:55:14.707Z,26.10
2018-06-16T13:57:43.319Z,26.40
2018-06-16T14:00:11.884Z,27.00
2018-06-16T14:02:40.482Z,26.80
2018-06-16T14:05:09.040Z,26.60
2018-06-16T14:07:37.608Z,27.10
2018-06-16T14:10:06.235Z,27.40
2018-06-16T14:12:34.853Z,27.10
2018-06-16T14:15:03.469Z,27.20
2018-06-16T14:17:32.104Z,26.90
2018-06-16T14:20:00.696Z,27.00
2018-06-16T14:22:29.296Z,27.00
2018-06-16T14:24:57.875Z,27.10
2018-06-16T14:27:26.556Z,27.00
2018-06-16T14:29:55.136Z,26.20
2018-06-16T14:32:23.753Z,26.50
2018-06-16T14:34:52.411Z,26.30
2018-06-16T14:37:21.043Z,25.90
2018-06-16T14:39:49.636Z,25.90
2018-06-16T14:42:18.237Z,26.30
2018-06-16T14:44:46.844Z,26.60
2018-06-16T14:47:15.486Z,26.70
2018-06-16T14:49:44.070Z,26.90
2018-06-16T14:52:12.712Z,27.30
2018-06-16T14:54:41.272Z,27.10
2018-06-16T14:57:09.912Z,27.50
2018-06-16T14:59:38.756Z,27.20
2018-06-16T15:02:07.389Z,26.60
2018-06-16T15:04:36.023Z,26.80
2018-06-16T15:07:04.709Z,27.10
2018-06-16T15:09:33.375Z,27.10
2018-06-16T15:12:01.994Z,27.20
2018-06-16T15:14:30.689Z,27.40
2018-06-16T15:17:02.200Z,26.90
2018-06-16T15:19:30.896Z,26.60
2018-06-16T15:24:27.776Z,26.70
2018-06-16T15:26:56.365Z,26.80
2018-06-16T15:29:25.060Z,26.60
2018-06-16T15:31:53.623Z,26.90
2018-06-16T15:34:22.258Z,27.50
2018-06-16T15:36:50.836Z,27.30
2018-06-16T15:39:19.425Z,27.40
2018-06-16T15:41:48.116Z,27.20
2018-06-16T15:44:16.725Z,27.60
2018-06-16T15:46:45.348Z,27.70
2018-06-16T15:49:13.900Z,27.90
2018-06-16T15:51:42.508Z,27.30
2018-06-16T15:54:11.173Z,27.50
2018-06-16T15:56:39.754Z,27.00
2018-06-16T15:59:08.394Z,26.60
2018-06-16T16:01:37.017Z,26.80
2018-06-16T16:04:05.784Z,27.10
2018-06-16T16:06:34.376Z,26.70
2018-06-16T16:09:03.047Z,26.30
2018-06-16T16:11:31.679Z,26.00
2018-06-16T16:14:00.331Z,26.00
2018-06-16T16:16:28.924Z,25.50
2018-06-16T16:18:57.511Z,26.00
2018-06-16T16:21:26.144Z,26.00
2018-06-16T16:23:54.752Z,25.60
2018-06-16T16:26:24.343Z,25.80
2018-06-16T16:29:00.004Z,25.60
2018-06-16T16:31:28.596Z,25.60
2018-06-16T16:33:57.208Z,25.50
2018-06-16T16:36:25.842Z,26.80
2018-06-16T16:38:54.478Z,27.20
2018-06-16T16:41:23.118Z,27.10
2018-06-16T16:43:51.711Z,27.50
2018-06-16T16:46:20.403Z,27.90
2018-06-16T16:48:48.948Z,28.00
2018-06-16T16:51:17.595Z,28.00
2018-06-16T16:53:46.151Z,27.90
2018-06-16T16:56:14.748Z,27.10
2018-06-16T16:58:43.328Z,26.10
2018-06-16T17:01:12.097Z,25.10
2018-06-16T17:03:40.711Z,24.40
2018-06-16T17:06:09.913Z,23.60
2018-06-16T17:08:38.487Z,23.10
2018-06-16T17:11:07.105Z,23.00
2018-06-16T17:13:35.698Z,23.00
2018-06-16T17:16:04.332Z,22.70
2018-06-16T17:18:32.921Z,22.40
2018-06-16T17:21:01.661Z,22.20
2018-06-16T17:23:30.244Z,22.30
2018-06-16T17:25:58.915Z,22.50
2018-06-16T17:28:27.574Z,23.30
2018-06-16T17:30:56.205Z,24.20
2018-06-16T17:33:24.884Z,24.40
2018-06-16T17:38:21.965Z,23.60
2018-06-16T17:40:50.663Z,23.00
2018-06-16T17:43:19.297Z,22.90
2018-06-16T17:45:47.996Z,22.70
2018-06-16T17:48:16.699Z,22.60
2018-06-16T17:50:45.341Z,22.90
2018-06-16T17:53:14.067Z,23.20
2018-06-16T17:55:42.784Z,23.30
2018-06-16T17:58:11.454Z,23.60
2018-06-16T18:00:40.265Z,23.00
2018-06-16T18:03:08.993Z,23.00
2018-06-16T18:05:37.685Z,22.80
2018-06-16T18:08:06.372Z,22.60
2018-06-16T18:10:35.000Z,22.70
2018-06-16T18:13:03.689Z,22.50
2018-06-16T18:15:32.422Z,22.40
2018-06-16T18:18:01.125Z,22.10
2018-06-16T18:20:29.800Z,22.00
2018-06-16T18:22:58.481Z,21.80
2018-06-16T18:25:27.138Z,21.70
2018-06-16T18:27:55.825Z,21.70
2018-06-16T18:30:24.658Z,21.70
2018-06-16T18:32:53.321Z,21.60
2018-06-16T18:35:22.037Z,21.40
2018-06-16T18:37:50.734Z,21.30
2018-06-16T18:40:19.455Z,21.20
2018-06-16T18:42:48.134Z,21.10
2018-06-16T18:45:16.772Z,21.00
2018-06-16T18:47:45.432Z,21.00
2018-06-16T18:50:14.034Z,21.00
2018-06-16T18:52:42.886Z,20.90
2018-06-16T18:55:11.668Z,20.80
2018-06-16T18:57:40.475Z,20.80
2018-06-16T19:00:09.152Z,20.70
2018-06-16T19:02:37.853Z,20.70
2018-06-16T19:05:06.532Z,20.60
2018-06-16T19:07:35.204Z,20.50
2018-06-16T19:10:03.904Z,20.40
2018-06-16T19:12:32.689Z,20.30
2018-06-16T19:15:01.317Z,20.30
2018-06-16T19:17:29.977Z,20.20
2018-06-16T19:19:58.673Z,20.10
2018-06-16T19:22:27.444Z,20.10
2018-06-16T19:24:56.144Z,20.10
2018-06-16T19:27:24.847Z,20.00
2018-06-16T19:29:53.531Z,19.80
2018-06-16T19:32:22.272Z,19.70
2018-06-16T19:34:50.943Z,19.70
2018-06-16T19:37:19.633Z,19.60
2018-06-16T19:39:48.384Z,19.60
2018-06-16T19:42:17.041Z,19.50
2018-06-16T19:44:45.784Z,19.50
2018-06-16T19:49:43.796Z,19.40
2018-06-16T19:52:12.484Z,19.30
2018-06-16T19:54:41.137Z,19.30
2018-06-16T19:57:09.825Z,19.20
2018-06-16T19:59:38.447Z,19.20
2018-06-16T20:02:07.538Z,19.10
2018-06-16T20:07:04.869Z,19.20
2018-06-16T20:09:33.527Z,19.20
2018-06-16T20:12:02.216Z,19.10
2018-06-16T20:14:30.875Z,19.00
2018-06-16T20:16:59.532Z,18.90
2018-06-16T20:19:28.164Z,18.80
2018-06-16T20:21:56.796Z,18.90
2018-06-16T20:24:25.465Z,18.80
2018-06-16T20:26:54.099Z,18.70
2018-06-16T20:29:22.765Z,18.60
2018-06-16T20:31:51.343Z,18.60
2018-06-16T20:34:20.037Z,18.50
2018-06-16T20:36:48.705Z,18.50
2018-06-16T20:39:17.372Z,18.40
2018-06-16T20:44:14.857Z,18.30
2018-06-16T20:46:43.490Z,18.30
2018-06-16T20:49:12.235Z,18.20
2018-06-16T20:51:40.888Z,18.20
2018-06-16T20:54:09.556Z,18.20
2018-06-16T20:56:38.173Z,18.10
2018-06-16T20:59:06.813Z,18.10
2018-06-16T21:01:35.491Z,18.00
2018-06-16T21:04:04.178Z,18.00
2018-06-16T21:06:32.806Z,18.00
2018-06-16T21:09:01.436Z,17.90
2018-06-16T21:11:30.081Z,17.90
2018-06-16T21:13:58.765Z,17.70
2018-06-16T21:16:27.408Z,17.70
2018-06-16T21:18:56.040Z,17.70
2018-06-16T21:21:24.865Z,17.70
2018-06-16T21:23:53.488Z,17.70
2018-06-16T21:26:22.121Z,17.70
2018-06-16T21:28:50.795Z,17.50
2018-06-16T21:31:19.422Z,17.50
2018-06-16T21:33:48.122Z,17.50
2018-06-16T21:36:17.411Z,17.40
2018-06-16T21:38:45.990Z,17.40
2018-06-16T21:41:15.365Z,17.40
2018-06-16T21:43:44.000Z,17.30
2018-06-16T21:46:12.611Z,17.20
2018-06-16T21:48:41.268Z,17.10
2018-06-16T21:51:09.889Z,17.00
2018-06-16T21:53:38.648Z,17.00
2018-06-16T21:56:07.372Z,17.00
2018-06-16T21:58:36.002Z,16.90
2018-06-16T22:01:04.804Z,16.80
2018-06-16T22:03:33.476Z,16.80
2018-06-16T22:06:02.116Z,16.70
2018-06-16T22:08:32.417Z,16.60
2018-06-16T22:11:02.183Z,16.60
2018-06-16T22:13:31.277Z,16.60
2018-06-16T22:16:00.059Z,16.60
2018-06-16T22:18:28.896Z,16.50
2018-06-16T22:20:58.016Z,16.50
2018-06-16T22:23:26.695Z,16.40
2018-06-16T22:25:55.407Z,16.40
2018-06-16T22:28:24.097Z,16.40
2018-06-16T22:30:52.724Z,16.30
2018-06-16T22:33:21.372Z,16.10
2018-06-16T22:35:50.097Z,16.10
2018-06-16T22:38:18.758Z,16.20
2018-06-16T22:40:47.461Z,16.30
2018-06-16T22:43:16.145Z,16.20
2018-06-16T22:45:44.748Z,16.10
2018-06-16T22:48:13.397Z,16.10
2018-06-16T22:50:42.035Z,16.00
2018-06-16T22:53:10.693Z,15.90
2018-06-16T22:55:39.355Z,15.80
2018-06-16T22:58:07.997Z,15.70
2018-06-16T23:00:36.669Z,15.60
2018-06-16T23:03:05.343Z,15.50
2018-06-16T23:05:34.059Z,15.40
2018-06-16T23:08:02.836Z,15.30
2018-06-16T23:10:31.546Z,15.20
2018-06-16T23:13:00.154Z,15.10
2018-06-16T23:15:28.809Z,15.00
2018-06-16T23:17:57.433Z,14.90
2018-06-16T23:20:26.080Z,14.90
2018-06-16T23:22:54.717Z,14.80
2018-06-16T23:25:23.358Z,14.70
2018-06-16T23:27:51.959Z,14.80
2018-06-16T23:30:20.637Z,14.80
2018-06-16T23:32:49.266Z,14.80
2018-06-16T23:35:18.128Z,14.70
2018-06-16T23:37:46.768Z,14.70
2018-06-16T23:40:15.452Z,14.70
2018-06-16T23:42:44.022Z,14.70
2018-06-16T23:45:12.653Z,14.70
2018-06-16T23:47:41.308Z,14.50
2018-06-16T23:50:09.916Z,14.50
2018-06-16T23:52:38.512Z,14.40
2018-06-16T23:55:07.245Z,14.40
2018-06-16T23:57:35.900Z,14.40
